Time;durP1;ratioP1;P1;durP2;ratioP2;P2;SDS_P1;SDS_P2;PMS_P1;PMS_P2;Temp;Humidity;BMP_temperature;BMP_pressure;BME280_temperature;BME280_humidity;BME280_pressure;Samples;Min_cycle;Max_cycle;Signal;HPM_P1;HPM_P2
2024/04/02 00:00:07;;;;;;;;;;;;;;;15.31;60.56;99787.91;5024437;28;19944;-88
2024/04/02 00:02:32;;;;;;;;;;;;;;;15.30;60.64;99797.91;5028465;28;19920;-90
2024/04/02 00:04:57;;;;;;;;;;;;;;;15.23;60.94;99808.28;5029140;28;19925;-89
2024/04/02 00:07:22;;;;;;;;;;;;;;;15.21;61.45;99807.78;5028879;28;19968;-89
2024/04/02 00:09:48;;;;;;;;;;;;;;;15.16;61.70;99810.59;5024026;28;19917;-89
2024/04/02 00:12:13;;;;;;;;;;;;;;;15.12;61.66;99809.59;5029248;28;19917;-89
2024/04/02 00:14:38;;;;;;;;;;;;;;;15.08;62.25;99803.19;5028074;28;19917;-87
2024/04/02 00:17:03;;;;;;;;;;;;;;;15.06;62.48;99813.47;5028437;28;19936;-88
2024/04/02 00:19:29;;;;;;;;;;;;;;;15.09;62.21;99810.22;5024290;28;19925;-88
2024/04/02 00:21:54;;;;;;;;;;;;;;;15.08;61.93;99808.59;5026798;28;19925;-90
2024/04/02 00:24:19;;;;;;;;;;;;;;;15.03;61.87;99806.00;5024473;28;19967;-89
2024/04/02 00:26:44;;;;;;;;;;;;;;;14.98;61.97;99809.59;5029111;28;19967;-89
2024/04/02 00:29:10;;;;;;;;;;;;;;;14.97;61.79;99809.91;5025598;28;19925;-89
2024/04/02 00:31:35;;;;;;;;;;;;;;;14.91;62.09;99824.59;5026542;28;19932;-88
2024/04/02 00:34:00;;;;;;;;;;;;;;;14.86;61.87;99811.19;5024711;28;20401;-88
2024/04/02 00:36:25;;;;;;;;;;;;;;;14.84;61.77;99818.78;5024971;28;19922;-92
2024/04/02 00:38:50;;;;;;;;;;;;;;;14.81;61.75;99818.28;5022521;28;20179;-89
2024/04/02 00:41:15;;;;;;;;;;;;;;;14.79;61.70;99816.97;5025942;28;20432;-90
2024/04/02 00:43:41;;;;;;;;;;;;;;;14.78;61.86;99812.69;5026597;28;19921;-88
2024/04/02 00:46:06;;;;;;;;;;;;;;;14.77;61.66;99824.56;5027197;28;19921;-89
2024/04/02 00:48:31;;;;;;;;;;;;;;;14.76;61.54;99837.25;5024214;28;20471;-90
2024/04/02 00:50:57;;;;;;;;;;;;;;;14.73;61.60;99832.47;5026556;28;19917;-91
2024/04/02 00:53:22;;;;;;;;;;;;;;;14.74;61.46;99831.38;5028694;28;19917;-89
2024/04/02 00:55:48;;;;;;;;;;;;;;;14.74;61.50;99825.97;5032164;28;19917;-89
2024/04/02 00:58:16;;;;;;;;;;;;;;;14.73;61.28;99824.38;5028662;28;19921;-89
2024/04/02 01:00:41;;;;;;;;;;;;;;;14.73;61.37;99832.47;5029277;28;19932;-89
2024/04/02 01:03:07;;;;;;;;;;;;;;;14.70;61.59;99835.72;5028868;28;19918;-89
2024/04/02 01:05:34;;;;;;;;;;;;;;;14.72;61.43;99838.97;5026517;28;20332;-89
2024/04/02 01:08:00;;;;;;;;;;;;;;;14.75;61.37;99841.06;5030812;28;20388;-89
2024/04/02 01:10:25;;;;;;;;;;;;;;;14.79;61.18;99850.13;5030089;28;20012;-89
2024/04/02 01:12:52;;;;;;;;;;;;;;;14.79;61.17;99846.66;5032963;28;20007;-89
2024/04/02 01:15:21;;;;;;;;;;;;;;;14.78;60.88;99840.44;5031462;28;19917;-89
2024/04/02 01:17:46;;;;;;;;;;;;;;;14.76;60.87;99837.25;5032335;28;20266;-89
2024/04/02 01:20:12;;;;;;;;;;;;;;;14.74;60.96;99846.75;5028518;28;19974;-90
2024/04/02 01:22:37;;;;;;;;;;;;;;;14.71;60.97;99847.31;5031177;28;19987;-89
2024/04/02 01:25:02;;;;;;;;;;;;;;;14.70;60.80;99849.22;5030695;28;19943;-89
2024/04/02 01:27:27;;;;;;;;;;;;;;;14.67;60.92;99852.50;5029501;28;20389;-89
2024/04/02 01:29:54;;;;;;;;;;;;;;;14.64;61.16;99842.31;5029107;28;20400;-89
2024/04/02 01:32:19;;;;;;;;;;;;;;;14.60;61.06;99830.53;5030934;28;19917;-89
2024/04/02 01:34:44;;;;;;;;;;;;;;;14.61;61.08;99842.13;5030904;28;19917;-90
2024/04/02 01:37:09;;;;;;;;;;;;;;;14.57;61.08;99833.03;5029519;28;20436;-88
2024/04/02 01:39:34;;;;;;;;;;;;;;;14.57;61.29;99844.63;5029882;28;19929;-89
2024/04/02 01:42:00;;;;;;;;;;;;;;;14.59;60.98;99847.81;5030945;28;19917;-89
2024/04/02 01:44:25;;;;;;;;;;;;;;;14.58;60.93;99848.09;5028547;28;20407;-89
2024/04/02 01:46:50;;;;;;;;;;;;;;;14.60;61.04;99845.91;5031205;28;19931;-89
2024/04/02 01:49:15;;;;;;;;;;;;;;;14.61;60.93;99842.13;5029445;28;19925;-89
2024/04/02 01:51:40;;;;;;;;;;;;;;;14.61;60.77;99836.72;5030996;28;19920;-89
2024/04/02 01:54:06;;;;;;;;;;;;;;;14.60;60.91;99835.94;5031799;28;20435;-89
2024/04/02 01:56:31;;;;;;;;;;;;;;;14.62;60.85;99828.34;5026885;28;19925;-89
2024/04/02 01:58:56;;;;;;;;;;;;;;;14.65;60.67;99825.03;5030588;28;19924;-88
2024/04/02 02:01:21;;;;;;;;;;;;;;;14.65;60.62;99833.13;5028484;28;19921;-90
2024/04/02 02:03:46;;;;;;;;;;;;;;;14.63;60.37;99835.34;5026918;28;19924;-89
2024/04/02 02:06:11;;;;;;;;;;;;;;;14.60;60.51;99835.94;5032830;28;19917;-88
2024/04/02 02:08:37;;;;;;;;;;;;;;;14.60;60.55;99852.09;5028508;28;19921;-89
2024/04/02 02:11:03;;;;;;;;;;;;;;;14.63;60.47;99851.50;5030137;28;19924;-89
2024/04/02 02:13:30;;;;;;;;;;;;;;;14.64;60.46;99855.00;5027686;28;20432;-88
2024/04/02 02:15:58;;;;;;;;;;;;;;;14.70;60.25;99861.91;5030833;28;19959;-89
2024/04/02 02:18:24;;;;;;;;;;;;;;;14.65;60.28;99860.09;5027305;28;20534;-88
2024/04/02 02:20:49;;;;;;;;;;;;;;;14.67;60.17;99862.50;5030873;28;19928;-89
2024/04/02 02:23:15;;;;;;;;;;;;;;;14.66;59.99;99861.69;5031191;28;19925;-89
2024/04/02 02:25:40;;;;;;;;;;;;;;;14.63;60.21;99862.28;5026960;28;19987;-88
2024/04/02 02:28:06;;;;;;;;;;;;;;;14.65;60.24;99854.69;5027776;28;19927;-89
2024/04/02 02:30:31;;;;;;;;;;;;;;;14.65;60.00;99862.78;5025990;28;19931;-89
2024/04/02 02:32:56;;;;;;;;;;;;;;;14.64;60.23;99860.41;5030942;28;19971;-88
2024/04/02 02:35:21;;;;;;;;;;;;;;;14.62;60.15;99855.31;5027599;28;19917;-88
2024/04/02 02:37:46;;;;;;;;;;;;;;;14.62;60.23;99866.09;5026929;28;19917;-87
2024/04/02 02:40:12;;;;;;;;;;;;;;;14.60;60.07;99862.88;5026560;28;19921;-88
2024/04/02 02:42:37;;;;;;;;;;;;;;;14.62;60.15;99865.28;5032336;28;19921;-89
2024/04/02 02:45:02;;;;;;;;;;;;;;;14.61;60.24;99872.56;5029604;28;19923;-90
2024/04/02 02:47:28;;;;;;;;;;;;;;;14.58;60.21;99866.97;5025229;28;19920;-89
2024/04/02 02:49:53;;;;;;;;;;;;;;;14.57;60.19;99860.78;5029451;28;19925;-89
2024/04/02 02:52:18;;;;;;;;;;;;;;;14.55;60.20;99881.84;5026481;28;20345;-89
2024/04/02 02:54:43;;;;;;;;;;;;;;;14.54;60.37;99885.63;5030782;28;19925;-90
2024/04/02 02:57:09;;;;;;;;;;;;;;;14.52;60.34;99882.41;5032787;28;19920;-90
2024/04/02 02:59:34;;;;;;;;;;;;;;;14.44;60.49;99885.78;5029997;28;20298;-90
2024/04/02 03:01:59;;;;;;;;;;;;;;;14.42;60.61;99893.34;5029965;28;19940;-90
2024/04/02 03:04:24;;;;;;;;;;;;;;;14.41;60.81;99891.75;5025830;28;19924;-90
2024/04/02 03:06:49;;;;;;;;;;;;;;;14.42;60.64;99899.53;5022935;28;19976;-87
2024/04/02 03:09:15;;;;;;;;;;;;;;;14.42;60.59;99901.44;5024639;28;20044;-89
2024/04/02 03:11:40;;;;;;;;;;;;;;;14.42;60.58;99907.63;5023224;28;19921;-88
2024/04/02 03:14:05;;;;;;;;;;;;;;;14.40;60.63;99900.94;5024896;28;19921;-89
2024/04/02 03:16:31;;;;;;;;;;;;;;;14.38;60.48;99898.53;5026122;28;20197;-89
2024/04/02 03:18:56;;;;;;;;;;;;;;;14.36;60.63;99905.28;5023011;28;20370;-87
2024/04/02 03:21:21;;;;;;;;;;;;;;;14.35;60.76;99903.69;5025185;28;19929;-88
2024/04/02 03:23:47;;;;;;;;;;;;;;;14.38;60.66;99903.13;5026050;28;19928;-89
2024/04/02 03:26:13;;;;;;;;;;;;;;;14.39;60.52;99910.91;5024661;28;21078;-88
2024/04/02 03:28:39;;;;;;;;;;;;;;;14.39;60.64;99900.13;5027023;28;19963;-89
2024/04/02 03:31:04;;;;;;;;;;;;;;;14.40;60.37;99911.72;5030503;28;19972;-88
2024/04/02 03:33:29;;;;;;;;;;;;;;;14.39;60.38;99910.13;5029863;28;20618;-89
2024/04/02 03:36:00;;;;;;;;;;;;;;;14.36;60.48;99910.66;5030698;28;19921;-89
2024/04/02 03:38:25;;;;;;;;;;;;;;;14.36;60.51;99910.66;5026467;28;19923;-89
2024/04/02 03:40:50;;;;;;;;;;;;;;;14.33;60.53;99912.06;5028816;28;19921;-88
2024/04/02 03:43:15;;;;;;;;;;;;;;;14.33;60.45;99913.97;5029871;28;19921;-91
2024/04/02 03:45:41;;;;;;;;;;;;;;;14.30;60.75;99925.31;5025501;28;19975;-89
2024/04/02 03:48:07;;;;;;;;;;;;;;;14.30;60.66;99917.25;5028568;28;19917;-89
2024/04/02 03:50:33;;;;;;;;;;;;;;;14.32;60.47;99917.75;5021046;28;19933;-89
2024/04/02 03:52:58;;;;;;;;;;;;;;;14.31;60.48;99935.00;5025364;28;20727;-90
2024/04/02 03:55:23;;;;;;;;;;;;;;;14.27;60.37;99907.06;5031028;28;20006;-89
2024/04/02 03:57:48;;;;;;;;;;;;;;;14.24;60.50;99919.22;5029546;28;19987;-88
2024/04/02 04:00:14;;;;;;;;;;;;;;;14.24;60.42;99915.72;5028492;28;19921;-89
2024/04/02 04:02:39;;;;;;;;;;;;;;;14.13;60.78;99920.44;5025920;28;20416;-89
2024/04/02 04:05:04;;;;;;;;;;;;;;;14.16;60.59;99920.66;5026132;28;19959;-90
2024/04/02 04:07:30;;;;;;;;;;;;;;;14.12;60.78;99927.72;5023381;28;19924;-88
2024/04/02 04:09:55;;;;;;;;;;;;;;;14.10;60.84;99932.63;5028810;28;19964;-89
2024/04/02 04:12:20;;;;;;;;;;;;;;;14.09;60.94;99933.72;5024133;28;19917;-89
2024/04/02 04:14:49;;;;;;;;;;;;;;;14.11;60.79;99945.00;5027737;28;19928;-89
2024/04/02 04:17:14;;;;;;;;;;;;;;;14.04;60.92;99941.06;5025741;28;20076;-90
2024/04/02 04:19:40;;;;;;;;;;;;;;;14.04;60.96;99947.25;5028156;28;20361;-89
2024/04/02 04:22:05;;;;;;;;;;;;;;;14.01;61.01;99953.22;5028676;28;20396;-89
2024/04/02 04:24:30;;;;;;;;;;;;;;;14.00;60.86;99956.97;5022213;28;19917;-88
2024/04/02 04:26:55;;;;;;;;;;;;;;;13.93;61.17;99961.94;5023239;28;20373;-89
2024/04/02 04:29:20;;;;;;;;;;;;;;;13.91;61.40;99958.72;5021796;28;19917;-89
2024/04/02 04:31:46;;;;;;;;;;;;;;;13.89;61.46;99960.91;5027509;28;19925;-89
2024/04/02 04:34:12;;;;;;;;;;;;;;;13.83;61.66;99962.06;5029625;28;19963;-89
2024/04/02 04:36:37;;;;;;;;;;;;;;;13.80;61.91;99962.63;5023662;28;19917;-90
2024/04/02 04:39:05;;;;;;;;;;;;;;;13.77;61.97;99958.63;5029182;28;19925;-89
2024/04/02 04:41:30;;;;;;;;;;;;;;;13.77;61.90;99966.69;5031064;28;19921;-89
2024/04/02 04:43:55;;;;;;;;;;;;;;;13.77;61.84;99968.59;5031855;28;19932;-90
2024/04/02 04:46:20;;;;;;;;;;;;;;;13.76;61.70;99972.38;5030321;28;19917;-88
2024/04/02 04:48:46;;;;;;;;;;;;;;;13.70;61.93;99976.22;5033134;28;19921;-89
2024/04/02 04:51:11;;;;;;;;;;;;;;;13.68;62.02;99979.22;5033687;28;20378;-89
2024/04/02 04:53:36;;;;;;;;;;;;;;;13.65;61.97;99984.38;5028728;28;19913;-91
2024/04/02 04:56:05;;;;;;;;;;;;;;;13.58;62.17;99974.72;5032015;28;20389;-89
2024/04/02 04:58:31;;;;;;;;;;;;;;;13.57;62.33;99978.50;5030314;28;20377;-89
2024/04/02 05:00:56;;;;;;;;;;;;;;;13.57;62.07;99980.41;5030871;28;19924;-89
2024/04/02 05:03:21;;;;;;;;;;;;;;;13.50;62.55;99975.38;5030338;28;20008;-89
2024/04/02 05:05:46;;;;;;;;;;;;;;;13.50;62.43;99975.38;5031152;28;20502;-90
2024/04/02 05:08:18;;;;;;;;;;;;;;;13.46;62.72;99963.56;5029234;28;20404;-89
2024/04/02 05:10:46;;;;;;;;;;;;;;;13.46;62.50;99963.56;5026407;28;19917;-88
2024/04/02 05:13:11;;;;;;;;;;;;;;;13.48;62.24;99963.28;5028366;28;19968;-90
2024/04/02 05:15:37;;;;;;;;;;;;;;;13.48;62.52;99956.03;5029194;28;19968;-89
2024/04/02 05:18:02;;;;;;;;;;;;;;;13.48;62.30;99964.09;5029929;28;20439;-90
2024/04/02 05:20:28;;;;;;;;;;;;;;;13.48;62.36;99966.78;5032151;28;19968;-89
2024/04/02 05:22:54;;;;;;;;;;;;;;;13.49;62.28;99970.28;5030504;28;19947;-89
2024/04/02 05:25:19;;;;;;;;;;;;;;;13.49;62.71;99968.38;5030306;28;19918;-89
2024/04/02 05:27:44;;;;;;;;;;;;;;;13.50;62.59;99964.59;5031299;28;20526;-87
2024/04/02 05:30:15;;;;;;;;;;;;;;;13.56;62.22;99982.28;5031393;28;19991;-89
2024/04/02 05:32:41;;;;;;;;;;;;;;;13.57;61.96;99975.03;5029608;28;19924;-89
2024/04/02 05:35:06;;;;;;;;;;;;;;;13.56;62.05;99974.22;5028659;28;19917;-89
2024/04/02 05:37:31;;;;;;;;;;;;;;;13.56;62.29;99970.72;5028232;28;19934;-89
2024/04/02 05:39:56;;;;;;;;;;;;;;;13.59;62.32;99970.94;5029501;28;19928;-88
2024/04/02 05:42:22;;;;;;;;;;;;;;;13.61;62.49;99976.84;5025623;28;19921;-89
2024/04/02 05:44:47;;;;;;;;;;;;;;;13.64;62.53;99980.03;5029335;28;20378;-88
2024/04/02 05:47:12;;;;;;;;;;;;;;;13.69;62.34;99980.81;5030140;28;19943;-89
2024/04/02 05:49:37;;;;;;;;;;;;;;;13.75;62.30;99973.47;5029471;28;20437;-89
2024/04/02 05:52:03;;;;;;;;;;;;;;;13.82;62.17;99980.13;5029604;28;20412;-90
2024/04/02 05:54:28;;;;;;;;;;;;;;;13.84;62.24;99963.69;5030421;28;20290;-89
2024/04/02 05:56:53;;;;;;;;;;;;;;;13.88;62.27;99970.09;5032048;28;20028;-89
2024/04/02 05:59:18;;;;;;;;;;;;;;;13.91;62.23;99975.69;5030481;28;19952;-89
2024/04/02 06:01:44;;;;;;;;;;;;;;;13.95;62.31;99973.22;5028004;28;20394;-91
2024/04/02 06:04:09;;;;;;;;;;;;;;;13.95;62.48;99970.53;5029917;28;19967;-89
2024/04/02 06:06:34;;;;;;;;;;;;;;;14.00;62.13;99958.88;5029226;28;19968;-89
2024/04/02 06:08:59;;;;;;;;;;;;;;;14.01;62.14;99965.88;5029613;28;19952;-89
2024/04/02 06:11:25;;;;;;;;;;;;;;;14.00;62.19;99956.97;5028000;28;19998;-91
2024/04/02 06:13:50;;;;;;;;;;;;;;;14.03;62.12;99963.72;5028251;28;19917;-89
2024/04/02 06:16:16;;;;;;;;;;;;;;;14.04;62.29;99963.41;5024936;28;19921;-88
2024/04/02 06:18:41;;;;;;;;;;;;;;;14.11;62.63;99966.53;5025910;28;19921;-89
2024/04/02 06:21:07;;;;;;;;;;;;;;;14.19;62.24;99957.81;5029605;28;20344;-88
2024/04/02 06:23:32;;;;;;;;;;;;;;;14.24;62.37;99959.63;5024248;28;20000;-88
2024/04/02 06:25:57;;;;;;;;;;;;;;;14.29;62.62;99964.94;5020965;28;19921;-87
2024/04/02 06:28:22;;;;;;;;;;;;;;;14.32;62.46;99975.13;5022850;28;19921;-87
2024/04/02 06:30:47;;;;;;;;;;;;;;;14.35;62.47;99968.34;5024912;28;20335;-86
2024/04/02 06:33:13;;;;;;;;;;;;;;;14.40;62.45;99973.69;5024776;28;19924;-87
2024/04/02 06:35:38;;;;;;;;;;;;;;;14.41;61.97;99962.63;5026721;28;19968;-87
2024/04/02 06:38:03;;;;;;;;;;;;;;;14.37;62.00;99983.16;5026142;28;19921;-87
2024/04/02 06:40:28;;;;;;;;;;;;;;;14.37;62.08;99968.88;5024199;28;19937;-88
2024/04/02 06:42:53;;;;;;;;;;;;;;;14.37;62.37;99963.50;5023094;28;19928;-87
2024/04/02 06:45:19;;;;;;;;;;;;;;;14.39;62.41;99954.03;5023857;28;19951;-86
2024/04/02 06:47:44;;;;;;;;;;;;;;;14.41;62.32;99965.31;5025115;28;19921;-87
2024/04/02 06:50:09;;;;;;;;;;;;;;;14.48;62.12;99962.28;5022873;28;20293;-88
2024/04/02 06:52:34;;;;;;;;;;;;;;;14.50;62.16;99957.38;5021338;28;19957;-86
2024/04/02 06:54:59;;;;;;;;;;;;;;;14.54;61.98;99952.19;5025515;28;19924;-87
2024/04/02 06:57:25;;;;;;;;;;;;;;;14.62;61.83;99968.53;5019620;28;19928;-88
2024/04/02 06:59:50;;;;;;;;;;;;;;;14.65;61.70;99957.16;5024198;28;20381;-88
2024/04/02 07:02:15;;;;;;;;;;;;;;;14.67;61.76;99962.25;5024934;28;19960;-89
2024/04/02 07:04:40;;;;;;;;;;;;;;;14.72;61.37;99962.16;5023228;28;19921;-87
2024/04/02 07:07:06;;;;;;;;;;;;;;;14.73;61.10;99959.19;5025145;28;20377;-87
2024/04/02 07:09:31;;;;;;;;;;;;;;;14.74;61.39;99962.69;5021602;28;19948;-88
2024/04/02 07:11:57;;;;;;;;;;;;;;;14.79;61.26;99958.00;5024238;28;19917;-86
2024/04/02 07:14:22;;;;;;;;;;;;;;;14.81;61.27;99966.59;5021262;28;20386;-91
2024/04/02 07:16:48;;;;;;;;;;;;;;;14.82;60.93;99965.50;5025717;28;19921;-88
2024/04/02 07:19:13;;;;;;;;;;;;;;;14.79;61.13;99960.69;5024673;28;19921;-87
2024/04/02 07:21:38;;;;;;;;;;;;;;;14.82;61.12;99980.88;5025102;28;19933;-88
2024/04/02 07:24:04;;;;;;;;;;;;;;;14.82;60.99;99983.56;5023786;28;19924;-86
2024/04/02 07:26:29;;;;;;;;;;;;;;;14.86;61.10;99984.59;5023439;28;19917;-88
2024/04/02 07:28:54;;;;;;;;;;;;;;;14.87;61.12;99982.69;5022791;28;19921;-87
2024/04/02 07:31:24;;;;;;;;;;;;;;;14.89;61.21;99986.69;5020384;28;19941;-89
2024/04/02 07:33:49;;;;;;;;;;;;;;;14.91;61.06;99991.81;5024473;28;19932;-86
2024/04/02 07:36:14;;;;;;;;;;;;;;;14.94;61.09;99989.31;5022250;28;20011;-86
2024/04/02 07:38:39;;;;;;;;;;;;;;;14.97;60.53;99996.03;5025480;28;19921;-87
2024/04/02 07:41:05;;;;;;;;;;;;;;;14.97;60.62;100004.13;5022079;28;19972;-87
2024/04/02 07:43:30;;;;;;;;;;;;;;;14.99;60.42;100004.63;5024439;28;20397;-87
2024/04/02 07:45:55;;;;;;;;;;;;;;;15.01;60.33;100003.22;5021175;28;19925;-88
2024/04/02 07:48:23;;;;;;;;;;;;;;;15.01;60.30;100011.31;5022623;28;19921;-88
2024/04/02 07:50:49;;;;;;;;;;;;;;;15.02;60.08;100009.41;5025878;28;20055;-86
2024/04/02 07:53:14;;;;;;;;;;;;;;;15.03;59.87;100005.63;5025664;28;20001;-87
2024/04/02 07:55:39;;;;;;;;;;;;;;;15.05;59.61;100022.31;5026204;28;19933;-89
2024/04/02 07:58:04;;;;;;;;;;;;;;;15.05;59.82;100020.41;5026989;28;20435;-90
2024/04/02 08:00:30;;;;;;;;;;;;;;;15.06;59.68;100013.13;5023578;28;19964;-87
2024/04/02 08:02:55;;;;;;;;;;;;;;;15.08;59.61;100017.16;5024168;28;19925;-86
2024/04/02 08:05:20;;;;;;;;;;;;;;;15.14;59.29;100025.16;5024516;28;19917;-86
2024/04/02 08:07:46;;;;;;;;;;;;;;;15.14;59.28;100017.84;5024470;28;20340;-86
2024/04/02 08:10:12;;;;;;;;;;;;;;;15.19;59.15;100027.75;5024998;28;20039;-89
2024/04/02 08:12:37;;;;;;;;;;;;;;;15.12;59.31;100020.06;5020970;28;19940;-86
2024/04/02 08:15:02;;;;;;;;;;;;;;;15.22;59.13;100022.56;5025223;28;19917;-88
2024/04/02 08:17:28;;;;;;;;;;;;;;;15.26;58.59;100023.59;5026881;28;19924;-87
2024/04/02 08:19:53;;;;;;;;;;;;;;;15.29;58.57;100024.91;5025207;28;20432;-89
2024/04/02 08:22:18;;;;;;;;;;;;;;;15.30;58.04;100032.69;5028657;28;19917;-88
2024/04/02 08:24:44;;;;;;;;;;;;;;;15.32;58.07;100035.09;5028125;28;19917;-90
2024/04/02 08:27:09;;;;;;;;;;;;;;;15.34;57.97;100043.69;5026931;28;19917;-86
2024/04/02 08:29:34;;;;;;;;;;;;;;;15.36;58.06;100038.78;5023289;28;20012;-91
2024/04/02 08:31:59;;;;;;;;;;;;;;;15.41;57.77;100049.50;5027614;28;19921;-86
2024/04/02 08:34:27;;;;;;;;;;;;;;;15.46;57.69;100043.22;5026862;28;19951;-87
2024/04/02 08:36:52;;;;;;;;;;;;;;;15.45;57.73;100049.72;5026857;28;19920;-90
2024/04/02 08:39:18;;;;;;;;;;;;;;;15.47;57.71;100052.91;5024869;28;19944;-86
2024/04/02 08:41:43;;;;;;;;;;;;;;;15.43;56.98;100053.50;5025322;28;19921;-88
2024/04/02 08:44:08;;;;;;;;;;;;;;;15.46;57.48;100062.13;5026371;28;19924;-89
2024/04/02 08:46:34;;;;;;;;;;;;;;;15.45;57.32;100064.03;5022958;28;19936;-87
2024/04/02 08:48:59;;;;;;;;;;;;;;;15.48;57.21;100060.72;5025847;28;19921;-87
2024/04/02 08:51:29;;;;;;;;;;;;;;;15.46;57.02;100059.41;5024806;28;19921;-87
2024/04/02 08:53:54;;;;;;;;;;;;;;;15.46;57.10;100078.31;5023591;28;19928;-87
2024/04/02 08:56:20;;;;;;;;;;;;;;;15.47;56.97;100090.72;5029326;28;19921;-89
2024/04/02 08:58:49;;;;;;;;;;;;;;;15.48;56.80;100081.50;5026251;28;19953;-88
2024/04/02 09:01:14;;;;;;;;;;;;;;;15.48;57.11;100090.41;5024878;28;19956;-88
2024/04/02 09:03:40;;;;;;;;;;;;;;;15.50;57.00;100090.13;5023926;28;19975;-89
2024/04/02 09:06:05;;;;;;;;;;;;;;;15.53;56.87;100092.22;5023912;28;19939;-88
2024/04/02 09:08:32;;;;;;;;;;;;;;;15.58;57.01;100086.72;5024522;28;19920;-89
2024/04/02 09:10:58;;;;;;;;;;;;;;;15.64;57.01;100097.19;5025536;28;20431;-89
2024/04/02 09:13:23;;;;;;;;;;;;;;;15.60;56.62;100098.84;5018901;28;19945;-86
2024/04/02 09:15:48;;;;;;;;;;;;;;;15.62;56.73;100099.38;5023036;28;19921;-88
2024/04/02 09:18:14;;;;;;;;;;;;;;;15.65;56.83;100098.78;5027397;28;20008;-89
2024/04/02 09:20:40;;;;;;;;;;;;;;;15.70;56.82;100096.00;5026804;28;20446;-88
2024/04/02 09:23:05;;;;;;;;;;;;;;;15.78;56.64;100096.38;5026678;28;20119;-88
2024/04/02 09:25:30;;;;;;;;;;;;;;;15.81;56.89;100101.22;5018135;28;19921;-87
2024/04/02 09:27:56;;;;;;;;;;;;;;;15.95;56.78;100097.41;5026922;28;19920;-88
2024/04/02 09:30:23;;;;;;;;;;;;;;;16.10;56.66;100092.81;5028434;28;19947;-88
2024/04/02 09:32:51;;;;;;;;;;;;;;;16.22;56.21;100099.31;5026860;28;20381;-88
2024/04/02 09:35:25;;;;;;;;;;;;;;;16.31;55.98;100097.50;5028284;28;19967;-87
2024/04/02 09:37:51;;;;;;;;;;;;;;;16.43;55.90;100096.19;5025118;28;20362;-89
2024/04/02 09:40:16;;;;;;;;;;;;;;;16.56;55.02;100098.91;5031358;28;19940;-88
2024/04/02 09:42:47;;;;;;;;;;;;;;;16.61;55.06;100106.09;5029451;28;19924;-87
2024/04/02 09:45:13;;;;;;;;;;;;;;;16.70;54.53;100098.09;5026914;28;19925;-91
2024/04/02 09:47:38;;;;;;;;;;;;;;;16.74;53.87;100102.59;5027306;28;20103;-90
2024/04/02 09:50:04;;;;;;;;;;;;;;;16.69;54.15;100094.56;5029257;28;20016;-89
2024/04/02 09:52:30;;;;;;;;;;;;;;;16.65;53.71;100096.25;5021597;28;19928;-90
2024/04/02 09:54:57;;;;;;;;;;;;;;;16.60;53.74;100097.19;5025725;28;20062;-88
2024/04/02 09:57:23;;;;;;;;;;;;;;;16.56;54.17;100096.19;5020179;28;20016;-88
2024/04/02 09:59:48;;;;;;;;;;;;;;;16.56;54.00;100101.59;5024882;28;19925;-88
2024/04/02 10:02:15;;;;;;;;;;;;;;;16.53;53.82;100099.50;5030959;28;20380;-87
2024/04/02 10:04:40;;;;;;;;;;;;;;;16.50;53.78;100097.38;5024582;28;19975;-87
2024/04/02 10:07:05;;;;;;;;;;;;;;;16.52;53.78;100105.22;5026141;28;20293;-86
2024/04/02 10:09:40;;;;;;;;;;;;;;;16.51;53.77;100098.97;5023529;28;19921;-86
2024/04/02 10:12:06;;;;;;;;;;;;;;;16.57;53.85;100100.50;5025968;28;20000;-86
2024/04/02 10:14:36;;;;;;;;;;;;;;;16.61;53.71;100098.78;5020916;28;20060;-86
2024/04/02 10:17:01;;;;;;;;;;;;;;;16.68;53.58;100108.41;5021954;28;19917;-87
2024/04/02 10:19:29;;;;;;;;;;;;;;;16.71;53.49;100107.81;5017126;28;19928;-86
2024/04/02 10:21:55;;;;;;;;;;;;;;;16.81;53.35;100112.97;5019798;28;19966;-86
2024/04/02 10:24:24;;;;;;;;;;;;;;;16.97;53.09;100119.66;5024171;28;19928;-90
2024/04/02 10:26:53;;;;;;;;;;;;;;;17.12;52.80;100111.19;5023210;28;19917;-87
2024/04/02 10:29:28;;;;;;;;;;;;;;;17.40;52.89;100116.47;5019149;28;19921;-86
2024/04/02 10:31:56;;;;;;;;;;;;;;;17.71;52.26;100117.31;5026251;28;19963;-89
2024/04/02 10:34:22;;;;;;;;;;;;;;;17.97;51.12;100113.97;5024113;28;19956;-87
2024/04/02 10:36:48;;;;;;;;;;;;;;;18.18;51.11;100123.13;5026751;28;19921;-87
2024/04/02 10:39:13;;;;;;;;;;;;;;;18.28;50.43;100117.41;5026792;28;19928;-89
2024/04/02 10:41:39;;;;;;;;;;;;;;;18.30;49.96;100117.09;5023628;28;20020;-87
2024/04/02 10:44:05;;;;;;;;;;;;;;;18.28;50.09;100122.81;5027179;28;19936;-87
2024/04/02 10:46:30;;;;;;;;;;;;;;;18.24;49.31;100127.28;5027537;28;19956;-90
2024/04/02 10:48:59;;;;;;;;;;;;;;;18.20;49.09;100134.47;5027159;28;19921;-90
2024/04/02 10:51:25;;;;;;;;;;;;;;;18.16;48.78;100128.06;5025719;28;19925;-90
2024/04/02 10:53:55;;;;;;;;;;;;;;;18.06;49.38;100131.84;5027338;28;20662;-89
2024/04/02 10:56:21;;;;;;;;;;;;;;;18.19;49.81;100142.91;5028306;28;19921;-89
2024/04/02 10:58:47;;;;;;;;;;;;;;;18.33;49.41;100133.56;5028891;28;19932;-88
2024/04/02 11:01:12;;;;;;;;;;;;;;;18.38;48.96;100133.41;5026777;28;19929;-86
2024/04/02 11:03:38;;;;;;;;;;;;;;;18.37;49.00;100107.41;5024607;28;20297;-87
2024/04/02 11:06:04;;;;;;;;;;;;;;;18.40;48.71;100133.88;5024806;28;20305;-88
2024/04/02 11:08:30;;;;;;;;;;;;;;;18.38;48.67;100117.13;5024050;28;20381;-89
2024/04/02 11:10:55;;;;;;;;;;;;;;;18.35;48.14;100123.19;5024574;28;19967;-89
2024/04/02 11:13:26;;;;;;;;;;;;;;;18.29;48.28;100131.75;5023690;28;20008;-89
2024/04/02 11:15:52;;;;;;;;;;;;;;;18.23;47.92;100135.75;5027287;28;20378;-89
2024/04/02 11:18:20;;;;;;;;;;;;;;;18.16;47.96;100135.41;5022426;28;19948;-86
2024/04/02 11:20:46;;;;;;;;;;;;;;;18.15;48.07;100134.59;5023753;28;20195;-87
2024/04/02 11:26:14;;;;;;;;;;;;;;;17.99;47.92;100136.13;5024747;28;20400;-90
2024/04/02 11:28:40;;;;;;;;;;;;;;;17.94;48.06;100133.53;5023288;28;19921;-90
2024/04/02 11:31:05;;;;;;;;;;;;;;;17.93;47.66;100149.00;5025591;28;19917;-87
2024/04/02 11:33:30;;;;;;;;;;;;;;;17.89;47.43;100150.72;5021712;28;19921;-86
2024/04/02 11:35:56;;;;;;;;;;;;;;;17.80;47.59;100150.69;5024893;28;19925;-88
2024/04/02 11:38:21;;;;;;;;;;;;;;;17.78;47.33;100161.06;5025128;28;20018;-87
2024/04/02 11:40:46;;;;;;;;;;;;;;;17.78;47.69;100166.47;5024049;28;19929;-88
2024/04/02 11:43:11;;;;;;;;;;;;;;;17.81;47.34;100163.13;5019484;28;19913;-86
2024/04/02 11:45:36;;;;;;;;;;;;;;;17.91;47.59;100170.19;5022883;28;19927;-89
2024/04/02 11:48:03;;;;;;;;;;;;;;;17.96;47.66;100163.88;5023377;28;19917;-87
2024/04/02 11:50:28;;;;;;;;;;;;;;;17.96;46.92;100177.41;5020630;28;19917;-89
2024/04/02 11:52:53;;;;;;;;;;;;;;;17.90;46.91;100175.94;5024936;28;20023;-87
2024/04/02 11:55:19;;;;;;;;;;;;;;;17.87;46.87;100180.06;5025521;28;20423;-89
2024/04/02 12:00:28;;;;;;;;;;;;;;;17.72;47.02;100180.44;5024211;28;19983;-88
2024/04/02 12:02:53;;;;;;;;;;;;;;;17.67;46.96;100184.06;5024745;28;19917;-86
2024/04/02 12:05:18;;;;;;;;;;;;;;;17.68;46.90;100196.53;5021702;28;19928;-91
2024/04/02 12:07:43;;;;;;;;;;;;;;;17.66;47.19;100187.88;5023121;28;19918;-89
2024/04/02 12:10:10;;;;;;;;;;;;;;;17.65;46.93;100186.28;5020673;28;19928;-88
2024/04/02 12:12:35;;;;;;;;;;;;;;;17.63;46.73;100209.38;5021873;28;20003;-87
2024/04/02 12:15:02;;;;;;;;;;;;;;;17.59;46.38;100202.94;5025853;28;20020;-86
2024/04/02 12:17:27;;;;;;;;;;;;;;;17.52;45.89;100201.47;5022407;28;19924;-88
2024/04/02 12:19:55;;;;;;;;;;;;;;;17.47;46.14;100207.03;5026195;28;19921;-89
2024/04/02 12:22:20;;;;;;;;;;;;;;;17.45;46.28;100197.59;5026081;28;19956;-87
2024/04/02 12:24:45;;;;;;;;;;;;;;;17.44;46.15;100206.84;5023622;28;19967;-86
2024/04/02 12:27:11;;;;;;;;;;;;;;;17.47;46.56;100220.56;5020341;28;19917;-87
2024/04/02 12:29:36;;;;;;;;;;;;;;;17.50;46.48;100211.03;5019771;28;19925;-88
2024/04/02 12:32:02;;;;;;;;;;;;;;;17.54;46.53;100222.84;5021497;28;19917;-88
2024/04/02 12:34:27;;;;;;;;;;;;;;;17.54;46.49;100220.13;5021352;28;19917;-86
2024/04/02 12:36:53;;;;;;;;;;;;;;;17.58;46.05;100212.19;5020398;28;19921;-87
2024/04/02 12:39:18;;;;;;;;;;;;;;;17.62;46.35;100208.56;5019058;28;19927;-87